Time;durP1;ratioP1;P1;durP2;ratioP2;P2;SDS_P1;SDS_P2;PMS_P1;PMS_P2;Temp;Humidity;BMP_temperature;BMP_pressure;BME280_temperature;BME280_humidity;BME280_pressure;Samples;Min_cycle;Max_cycle;Signal;HPM_P1;HPM_P2
2020/12/27 00:02:06;;;;;;;11.13;8.40;;;;;;;;;;4967802;28;20248;-73
2020/12/27 00:04:31;;;;;;;10.07;8.20;;;;;;;;;;4959615;28;20230;-74
2020/12/27 00:06:56;;;;;;;12.70;8.80;;;;;;;;;;4974081;28;20532;-74
2020/12/27 00:09:21;;;;;;;11.00;9.67;;;;;;;;;;4955698;28;20180;-73
2020/12/27 00:11:47;;;;;;;11.40;9.43;;;;;;;;;;4956121;28;20315;-74
2020/12/27 00:14:12;;;;;;;13.30;10.00;;;;;;;;;;4954306;28;20294;-74
2020/12/27 00:16:37;;;;;;;12.10;9.43;;;;;;;;;;4959544;28;20577;-74
2020/12/27 00:19:02;;;;;;;12.40;10.10;;;;;;;;;;4953474;28;20223;-73
2020/12/27 00:21:27;;;;;;;12.07;10.10;;;;;;;;;;4952080;28;20183;-74
2020/12/27 00:23:52;;;;;;;11.73;10.37;;;;;;;;;;4957255;28;20211;-74
2020/12/27 00:26:18;;;;;;;14.20;9.60;;;;;;;;;;4952492;28;20663;-74
2020/12/27 00:28:43;;;;;;;10.87;9.23;;;;;;;;;;4956144;28;20184;-74
2020/12/27 00:31:08;;;;;;;13.13;10.70;;;;;;;;;;4953374;28;20542;-73
2020/12/27 00:33:34;;;;;;;13.57;11.07;;;;;;;;;;4950851;28;20204;-75
2020/12/27 00:36:00;;;;;;;13.13;11.20;;;;;;;;;;4950501;28;20204;-74
2020/12/27 00:38:25;;;;;;;13.40;10.67;;;;;;;;;;4955655;28;20520;-73
2020/12/27 00:40:50;;;;;;;12.17;9.63;;;;;;;;;;4951388;28;20219;-73
2020/12/27 00:43:15;;;;;;;13.70;10.83;;;;;;;;;;4955629;28;20196;-74
2020/12/27 00:45:40;;;;;;;14.23;11.27;;;;;;;;;;4954069;28;20227;-73
2020/12/27 00:48:05;;;;;;;14.23;11.07;;;;;;;;;;4950356;28;20240;-74
2020/12/27 00:50:31;;;;;;;14.10;10.50;;;;;;;;;;4954200;28;20221;-73
2020/12/27 00:52:56;;;;;;;14.13;11.17;;;;;;;;;;4955284;28;20199;-73
2020/12/27 00:55:21;;;;;;;14.53;10.90;;;;;;;;;;4950988;28;20191;-73
2020/12/27 00:57:46;;;;;;;15.57;12.33;;;;;;;;;;4954459;28;20187;-74
2020/12/27 01:00:12;;;;;;;15.73;10.80;;;;;;;;;;4951874;28;20209;-74
2020/12/27 01:02:37;;;;;;;14.47;11.37;;;;;;;;;;4959038;28;20208;-74
2020/12/27 01:05:02;;;;;;;14.23;11.63;;;;;;;;;;4953621;28;20283;-74
2020/12/27 01:07:28;;;;;;;14.13;11.00;;;;;;;;;;4952697;28;20193;-74
2020/12/27 01:09:53;;;;;;;13.53;11.17;;;;;;;;;;4952490;28;20567;-74
2020/12/27 01:12:18;;;;;;;15.33;9.63;;;;;;;;;;4952825;28;20184;-74
2020/12/27 01:14:43;;;;;;;14.37;12.20;;;;;;;;;;4956437;28;20208;-74
2020/12/27 01:17:08;;;;;;;17.17;11.43;;;;;;;;;;4963695;28;20188;-73
2020/12/27 01:19:33;;;;;;;16.10;12.97;;;;;;;;;;4953761;28;20343;-73
2020/12/27 01:21:59;;;;;;;14.93;10.90;;;;;;;;;;4950208;28;20227;-74
2020/12/27 01:24:24;;;;;;;16.50;11.33;;;;;;;;;;4953609;28;20295;-74
2020/12/27 01:26:49;;;;;;;14.53;11.10;;;;;;;;;;4952336;28;20184;-74
2020/12/27 01:29:14;;;;;;;14.43;10.03;;;;;;;;;;4953418;28;20569;-73
2020/12/27 01:31:39;;;;;;;15.53;11.03;;;;;;;;;;4950719;28;20184;-73
2020/12/27 01:34:05;;;;;;;12.10;8.90;;;;;;;;;;4952746;28;20804;-73
2020/12/27 01:36:31;;;;;;;13.83;10.30;;;;;;;;;;4949087;28;20192;-74
2020/12/27 01:38:56;;;;;;;14.10;10.67;;;;;;;;;;4966542;28;20183;-74
2020/12/27 01:41:22;;;;;;;13.77;10.83;;;;;;;;;;4953935;28;20232;-74
2020/12/27 01:44:04;;;;;;;11.80;9.00;;;;;;;;;;4954568;28;20437;-73
2020/12/27 01:46:30;;;;;;;11.63;9.53;;;;;;;;;;4953876;28;20207;-73
2020/12/27 01:48:55;;;;;;;14.67;10.60;;;;;;;;;;4966900;28;20187;-74
2020/12/27 01:51:20;;;;;;;12.40;9.17;;;;;;;;;;4967982;28;20171;-74
2020/12/27 01:53:46;;;;;;;12.47;10.13;;;;;;;;;;4974598;28;20271;-75
2020/12/27 01:56:13;;;;;;;12.77;8.40;;;;;;;;;;4978177;28;20191;-74
2020/12/27 01:58:40;;;;;;;12.17;10.03;;;;;;;;;;4986076;28;20188;-74
2020/12/27 02:01:05;;;;;;;10.83;9.23;;;;;;;;;;4979504;28;20273;-74
2020/12/27 02:03:30;;;;;;;10.83;7.93;;;;;;;;;;4982133;28;20724;-74
2020/12/27 02:05:56;;;;;;;14.30;9.67;;;;;;;;;;4980841;28;20697;-74
2020/12/27 02:08:21;;;;;;;11.93;8.97;;;;;;;;;;4983247;28;20190;-74
2020/12/27 02:10:48;;;;;;;13.63;9.67;;;;;;;;;;4980246;28;20657;-73
2020/12/27 02:13:13;;;;;;;9.80;7.93;;;;;;;;;;4967715;28;20203;-73
2020/12/27 02:15:38;;;;;;;13.00;9.23;;;;;;;;;;4970253;28;20244;-73
2020/12/27 02:18:04;;;;;;;10.90;8.87;;;;;;;;;;4982331;28;20270;-74
2020/12/27 02:20:29;;;;;;;13.47;8.63;;;;;;;;;;4974586;28;20258;-74
2020/12/27 02:22:54;;;;;;;11.77;9.37;;;;;;;;;;4975529;28;20228;-73
2020/12/27 02:25:19;;;;;;;11.23;8.50;;;;;;;;;;4975028;28;20710;-74
2020/12/27 02:27:44;;;;;;;8.67;7.77;;;;;;;;;;4974740;28;20251;-73
2020/12/27 02:30:10;;;;;;;8.60;7.47;;;;;;;;;;4965149;28;20654;-74
2020/12/27 02:32:35;;;;;;;8.43;6.47;;;;;;;;;;4973891;28;20212;-74
2020/12/27 02:35:01;;;;;;;10.03;6.17;;;;;;;;;;4967615;28;20164;-73
2020/12/27 02:37:26;;;;;;;12.13;7.57;;;;;;;;;;4974061;28;20267;-73
2020/12/27 02:39:51;;;;;;;9.30;7.20;;;;;;;;;;4970488;28;20204;-73
2020/12/27 02:42:16;;;;;;;8.63;6.70;;;;;;;;;;4973484;28;20256;-74
2020/12/27 02:45:08;;;;;;;6.23;5.37;;;;;;;;;;4966309;28;20192;-73
2020/12/27 02:47:27;;;;;;;9.97;6.27;;;;;;;;;;4970514;28;20250;-73
2020/12/27 02:49:52;;;;;;;8.50;6.40;;;;;;;;;;4976217;28;20670;-73
2020/12/27 02:52:18;;;;;;;10.07;6.70;;;;;;;;;;4975185;28;20187;-73
2020/12/27 02:54:43;;;;;;;11.93;6.20;;;;;;;;;;4989315;28;20616;-74
2020/12/27 02:57:08;;;;;;;8.40;5.93;;;;;;;;;;4976584;28;20736;-74
2020/12/27 02:59:33;;;;;;;8.70;6.60;;;;;;;;;;4975929;28;20204;-74
2020/12/27 03:01:58;;;;;;;7.13;5.23;;;;;;;;;;4973820;28;20184;-74
2020/12/27 03:04:24;;;;;;;8.60;6.37;;;;;;;;;;4973381;28;20587;-74
2020/12/27 03:06:49;;;;;;;8.77;6.20;;;;;;;;;;4976317;28;20199;-73
2020/12/27 03:09:14;;;;;;;8.40;5.83;;;;;;;;;;4964164;28;20646;-74
2020/12/27 03:11:40;;;;;;;7.17;5.47;;;;;;;;;;4974204;28;20256;-74
2020/12/27 03:14:07;;;;;;;6.70;5.63;;;;;;;;;;4979820;28;20606;-73
2020/12/27 03:16:33;;;;;;;7.50;5.53;;;;;;;;;;4976618;28;20196;-73
2020/12/27 03:18:58;;;;;;;7.73;5.63;;;;;;;;;;4976065;28;20210;-74
2020/12/27 03:21:23;;;;;;;11.83;5.20;;;;;;;;;;4981064;28;20573;-73
2020/12/27 03:23:49;;;;;;;6.47;5.33;;;;;;;;;;4964390;28;20255;-74
2020/12/27 03:26:14;;;;;;;6.77;5.40;;;;;;;;;;4973678;28;20721;-74
2020/12/27 03:28:39;;;;;;;8.23;5.27;;;;;;;;;;4963751;28;20181;-73
2020/12/27 03:31:04;;;;;;;7.77;4.67;;;;;;;;;;4974779;28;20666;-73
2020/12/27 03:33:29;;;;;;;7.97;5.20;;;;;;;;;;4978029;28;20192;-73
2020/12/27 03:35:55;;;;;;;7.30;4.70;;;;;;;;;;4973008;28;20168;-73
2020/12/27 03:38:20;;;;;;;6.63;5.00;;;;;;;;;;4966534;28;20589;-74
2020/12/27 03:40:45;;;;;;;5.67;4.37;;;;;;;;;;4966085;28;20216;-73
2020/12/27 03:43:10;;;;;;;5.33;4.30;;;;;;;;;;4976194;28;20669;-74
2020/12/27 03:45:36;;;;;;;7.77;4.63;;;;;;;;;;4976417;28;20288;-73
2020/12/27 03:48:01;;;;;;;5.63;4.90;;;;;;;;;;4989556;28;20546;-73
2020/12/27 03:50:26;;;;;;;5.67;4.60;;;;;;;;;;4977789;28;20180;-74
2020/12/27 03:52:51;;;;;;;7.50;4.73;;;;;;;;;;4970859;28;20226;-74
2020/12/27 03:55:16;;;;;;;7.20;5.03;;;;;;;;;;4980725;28;20560;-73
2020/12/27 03:57:42;;;;;;;5.77;4.20;;;;;;;;;;4960674;28;20172;-73
2020/12/27 04:00:07;;;;;;;7.50;5.33;;;;;;;;;;4973141;28;20204;-73
2020/12/27 04:02:32;;;;;;;6.97;4.73;;;;;;;;;;4973661;28;20180;-73
2020/12/27 04:04:57;;;;;;;5.60;4.32;;;;;;;;;;4974352;28;20655;-74
2020/12/27 04:07:23;;;;;;;5.17;4.33;;;;;;;;;;4971081;28;20195;-74
2020/12/27 04:09:48;;;;;;;6.63;4.50;;;;;;;;;;4975690;28;20181;-73
2020/12/27 04:12:13;;;;;;;4.30;3.40;;;;;;;;;;4973410;28;20188;-73
2020/12/27 04:14:39;;;;;;;4.57;4.17;;;;;;;;;;4976897;28;20200;-73
2020/12/27 04:17:05;;;;;;;4.13;3.37;;;;;;;;;;4973146;28;20276;-73
2020/12/27 04:19:30;;;;;;;6.13;3.97;;;;;;;;;;4977965;28;20192;-75
2020/12/27 04:21:55;;;;;;;6.23;4.03;;;;;;;;;;4965150;28;20654;-73
2020/12/27 04:24:20;;;;;;;4.47;3.67;;;;;;;;;;4971433;28;20193;-73
2020/12/27 04:26:47;;;;;;;5.07;4.50;;;;;;;;;;4971930;28;20181;-73
2020/12/27 04:29:12;;;;;;;3.60;3.00;;;;;;;;;;4972906;28;20180;-74
2020/12/27 04:31:37;;;;;;;4.07;2.97;;;;;;;;;;4962529;28;20190;-75
2020/12/27 04:34:03;;;;;;;3.70;3.20;;;;;;;;;;4975317;28;20283;-74
2020/12/27 04:36:28;;;;;;;3.77;3.30;;;;;;;;;;4971255;28;20184;-74
2020/12/27 04:38:53;;;;;;;5.03;4.00;;;;;;;;;;4975694;28;20265;-73
2020/12/27 04:41:18;;;;;;;3.90;3.10;;;;;;;;;;4987385;28;20200;-74
2020/12/27 04:43:44;;;;;;;3.67;3.23;;;;;;;;;;4972472;28;20573;-74
2020/12/27 04:46:11;;;;;;;4.27;3.13;;;;;;;;;;4973186;28;20180;-74
2020/12/27 04:48:38;;;;;;;5.10;3.37;;;;;;;;;;4972884;28;20172;-74
2020/12/27 04:51:04;;;;;;;3.30;3.00;;;;;;;;;;4977430;28;20192;-75
2020/12/27 04:53:29;;;;;;;3.37;2.87;;;;;;;;;;4972132;28;20200;-74
2020/12/27 04:55:55;;;;;;;8.17;3.00;;;;;;;;;;4965553;28;20184;-73
2020/12/27 04:58:22;;;;;;;3.40;2.73;;;;;;;;;;4970884;28;20263;-73
2020/12/27 05:00:47;;;;;;;3.57;3.20;;;;;;;;;;4973338;28;20590;-73
2020/12/27 05:03:12;;;;;;;2.60;2.10;;;;;;;;;;4975765;28;20298;-74
2020/12/27 05:05:38;;;;;;;4.23;3.10;;;;;;;;;;4963384;28;20183;-74
2020/12/27 05:08:03;;;;;;;2.83;2.30;;;;;;;;;;4972799;28;20185;-74
2020/12/27 05:10:28;;;;;;;2.43;2.23;;;;;;;;;;4967083;28;20192;-73
2020/12/27 05:12:54;;;;;;;3.37;2.03;;;;;;;;;;4971967;28;20235;-74
2020/12/27 05:15:20;;;;;;;3.67;2.30;;;;;;;;;;4972659;28;20180;-74
2020/12/27 05:17:47;;;;;;;2.67;1.87;;;;;;;;;;4978216;28;20239;-74
2020/12/27 05:20:16;;;;;;;1.70;1.60;;;;;;;;;;4974312;28;20188;-73
2020/12/27 05:22:42;;;;;;;2.00;1.70;;;;;;;;;;4977896;28;20637;-73
2020/12/27 05:25:07;;;;;;;2.23;1.40;;;;;;;;;;4972584;28;20256;-74
2020/12/27 05:27:39;;;;;;;1.97;1.40;;;;;;;;;;4974440;28;20683;-74
2020/12/27 05:30:04;;;;;;;1.27;1.17;;;;;;;;;;4970952;28;20212;-74
2020/12/27 05:32:30;;;;;;;1.60;1.50;;;;;;;;;;4966973;28;20177;-75
2020/12/27 05:34:56;;;;;;;1.10;1.00;;;;;;;;;;4975699;28;20653;-74
2020/12/27 05:37:22;;;;;;;1.70;1.40;;;;;;;;;;4969989;28;20184;-75
2020/12/27 05:39:47;;;;;;;1.30;1.20;;;;;;;;;;4971440;28;20242;-72
2020/12/27 05:42:13;;;;;;;1.63;1.20;;;;;;;;;;4972603;28;20642;-73
2020/12/27 05:44:38;;;;;;;2.17;0.90;;;;;;;;;;4974858;28;20246;-73
2020/12/27 05:47:03;;;;;;;0.90;0.80;;;;;;;;;;4971441;28;20565;-74
2020/12/27 05:49:29;;;;;;;1.23;1.13;;;;;;;;;;4976976;28;20172;-74
2020/12/27 05:51:55;;;;;;;1.20;1.03;;;;;;;;;;4970969;28;20187;-74
2020/12/27 05:54:26;;;;;;;1.20;0.77;;;;;;;;;;4969850;28;20211;-73
2020/12/27 05:56:54;;;;;;;2.77;0.90;;;;;;;;;;4978929;28;20176;-73
2020/12/27 05:59:21;;;;;;;1.10;0.80;;;;;;;;;;4972159;28;20298;-74
2020/12/27 06:01:53;;;;;;;0.80;0.80;;;;;;;;;;4966034;28;20185;-73
2020/12/27 06:04:34;;;;;;;1.53;1.23;;;;;;;;;;4962355;28;20220;-73
2020/12/27 06:06:59;;;;;;;2.03;0.90;;;;;;;;;;4990575;28;20540;-73
2020/12/27 06:09:43;;;;;;;0.73;0.73;;;;;;;;;;4974514;28;20765;-73
2020/12/27 06:12:11;;;;;;;1.50;1.40;;;;;;;;;;4985387;28;20226;-73
2020/12/27 06:14:37;;;;;;;1.20;1.10;;;;;;;;;;4972880;28;20611;-73
2020/12/27 06:17:04;;;;;;;0.80;0.80;;;;;;;;;;4973490;28;20188;-73
2020/12/27 06:19:35;;;;;;;0.90;0.90;;;;;;;;;;4975353;28;20208;-73
2020/12/27 06:22:04;;;;;;;0.70;0.70;;;;;;;;;;4963721;28;20203;-73
2020/12/27 06:24:30;;;;;;;1.27;0.70;;;;;;;;;;4973861;28;20246;-73
2020/12/27 06:26:55;;;;;;;0.73;0.73;;;;;;;;;;4965216;28;20211;-73
2020/12/27 06:29:20;;;;;;;0.80;0.70;;;;;;;;;;4973274;28;20635;-74
2020/12/27 06:31:48;;;;;;;0.60;0.60;;;;;;;;;;4963668;28;20609;-73
2020/12/27 06:34:14;;;;;;;1.07;0.70;;;;;;;;;;4965967;28;20209;-73
2020/12/27 06:36:39;;;;;;;1.13;1.00;;;;;;;;;;4970997;28;20692;-74
2020/12/27 06:39:23;;;;;;;0.60;0.60;;;;;;;;;;4972739;28;20176;-74
2020/12/27 06:42:08;;;;;;;0.80;0.70;;;;;;;;;;4971831;28;20282;-74
2020/12/27 06:44:46;;;;;;;0.70;0.60;;;;;;;;;;4968063;28;20629;-74
2020/12/27 06:47:12;;;;;;;0.70;0.67;;;;;;;;;;4972448;28;20665;-75
2020/12/27 06:49:38;;;;;;;0.97;0.90;;;;;;;;;;4964647;28;20180;-74
2020/12/27 06:52:22;;;;;;;0.60;0.60;;;;;;;;;;4968792;28;20183;-74
2020/12/27 06:54:48;;;;;;;0.70;0.60;;;;;;;;;;4974426;28;20646;-74
2020/12/27 06:57:33;;;;;;;0.50;0.50;;;;;;;;;;4968905;28;20173;-74
2020/12/27 07:00:16;;;;;;;0.63;0.63;;;;;;;;;;4958658;28;20214;-74
2020/12/27 07:02:42;;;;;;;0.80;0.60;;;;;;;;;;4974479;28;20274;-74
2020/12/27 07:05:07;;;;;;;0.73;0.60;;;;;;;;;;4973782;28;20668;-74
2020/12/27 07:07:45;;;;;;;2.00;0.50;;;;;;;;;;4973679;28;20255;-74
2020/12/27 07:10:14;;;;;;;0.80;0.80;;;;;;;;;;4970955;28;20214;-75
2020/12/27 07:12:39;;;;;;;0.63;0.60;;;;;;;;;;4976224;28;20214;-74
2020/12/27 07:15:09;;;;;;;0.67;0.63;;;;;;;;;;4977350;28;20192;-74
2020/12/27 07:17:35;;;;;;;0.37;0.37;;;;;;;;;;4972805;28;20255;-73
2020/12/27 07:20:15;;;;;;;1.40;0.60;;;;;;;;;;4966270;28;20287;-74
2020/12/27 07:22:40;;;;;;;0.50;0.50;;;;;;;;;;4970580;28;20332;-74
2020/12/27 07:25:05;;;;;;;0.73;0.67;;;;;;;;;;4974507;28;20275;-74
2020/12/27 07:27:35;;;;;;;0.47;0.47;;;;;;;;;;4970829;28;20206;-75
2020/12/27 07:30:01;;;;;;;0.50;0.50;;;;;;;;;;4971001;28;20184;-74
2020/12/27 07:32:27;;;;;;;0.37;0.37;;;;;;;;;;4970228;28;20191;-74
2020/12/27 07:34:55;;;;;;;0.57;0.57;;;;;;;;;;4972793;28;20185;-75
2020/12/27 07:37:25;;;;;;;0.60;0.60;;;;;;;;;;4973563;28;20830;-74
2020/12/27 07:39:54;;;;;;;0.90;0.53;;;;;;;;;;4973053;28;20207;-74
2020/12/27 07:42:19;;;;;;;0.70;0.70;;;;;;;;;;4971368;28;20255;-75
2020/12/27 07:44:45;;;;;;;0.55;0.50;;;;;;;;;;4972895;28;20270;-74
2020/12/27 07:47:10;;;;;;;0.67;0.67;;;;;;;;;;4971796;28;20195;-76
2020/12/27 07:49:35;;;;;;;2.77;0.57;;;;;;;;;;4974545;28;20184;-75
2020/12/27 07:52:00;;;;;;;1.80;0.50;;;;;;;;;;4972222;28;20188;-75
2020/12/27 07:54:26;;;;;;;0.70;0.60;;;;;;;;;;4971624;28;20207;-75
2020/12/27 07:56:51;;;;;;;0.50;0.50;;;;;;;;;;4973651;28;20502;-76
2020/12/27 07:59:16;;;;;;;0.40;0.40;;;;;;;;;;4969462;28;20180;-76
2020/12/27 08:01:41;;;;;;;0.60;0.60;;;;;;;;;;4987771;28;20200;-75
2020/12/27 08:04:07;;;;;;;0.80;0.70;;;;;;;;;;4973806;28;20234;-76
2020/12/27 08:06:33;;;;;;;2.00;0.70;;;;;;;;;;4974051;28;20176;-74
2020/12/27 08:08:59;;;;;;;0.40;0.40;;;;;;;;;;4973576;28;20724;-76
2020/12/27 08:11:24;;;;;;;0.40;0.40;;;;;;;;;;4975245;28;20184;-74
2020/12/27 08:13:50;;;;;;;2.00;0.63;;;;;;;;;;4972186;28;20204;-74
2020/12/27 08:16:16;;;;;;;1.23;0.70;;;;;;;;;;4973598;28;20630;-74
2020/12/27 08:18:41;;;;;;;1.57;0.73;;;;;;;;;;4972481;28;20180;-73
2020/12/27 08:21:06;;;;;;;1.80;0.70;;;;;;;;;;4971359;28;20624;-74
2020/12/27 08:23:31;;;;;;;1.00;0.60;;;;;;;;;;4964036;28;20207;-77
2020/12/27 08:25:57;;;;;;;0.80;0.60;;;;;;;;;;4980787;28;20251;-74
2020/12/27 08:28:22;;;;;;;0.87;0.67;;;;;;;;;;4972873;28;20219;-73
2020/12/27 08:30:48;;;;;;;0.53;0.53;;;;;;;;;;4974841;28;20208;-75
2020/12/27 08:33:14;;;;;;;0.37;0.37;;;;;;;;;;4972890;28;20202;-75
2020/12/27 08:35:41;;;;;;;1.23;0.90;;;;;;;;;;4967307;28;20572;-75
2020/12/27 08:38:17;;;;;;;0.93;0.50;;;;;;;;;;4971646;28;20189;-73
2020/12/27 08:40:44;;;;;;;1.63;0.40;;;;;;;;;;4973302;28;20579;-74
2020/12/27 08:43:16;;;;;;;0.40;0.40;;;;;;;;;;4974612;28;20214;-74
2020/12/27 08:45:44;;;;;;;0.50;0.50;;;;;;;;;;4974054;28;20184;-73
2020/12/27 08:48:18;;;;;;;1.47;0.50;;;;;;;;;;4972502;28;20654;-74
2020/12/27 08:50:44;;;;;;;0.50;0.50;;;;;;;;;;4971194;28;20199;-73
2020/12/27 08:53:10;;;;;;;0.50;0.50;;;;;;;;;;4975462;28;20212;-74
2020/12/27 08:55:37;;;;;;;1.70;0.50;;;;;;;;;;4972856;28;20192;-74
2020/12/27 08:58:02;;;;;;;0.60;0.60;;;;;;;;;;4972137;28;20188;-74
2020/12/27 09:00:30;;;;;;;0.50;0.50;;;;;;;;;;4972948;28;20200;-73
2020/12/27 09:02:59;;;;;;;0.97;0.40;;;;;;;;;;4973004;28;20230;-75
2020/12/27 09:05:25;;;;;;;0.63;0.50;;;;;;;;;;4974551;28;20180;-74
2020/12/27 09:07:50;;;;;;;0.87;0.40;;;;;;;;;;4979719;28;20216;-75
2020/12/27 09:10:23;;;;;;;0.40;0.40;;;;;;;;;;4977315;28;20601;-77
2020/12/27 09:12:56;;;;;;;0.50;0.50;;;;;;;;;;4974501;28;20208;-73
2020/12/27 09:15:41;;;;;;;1.30;0.57;;;;;;;;;;4978416;28;20541;-74
2020/12/27 09:18:10;;;;;;;0.50;0.50;;;;;;;;;;4960064;28;20188;-74
2020/12/27 09:20:36;;;;;;;0.40;0.40;;;;;;;;;;4968593;28;20628;-74
2020/12/27 09:23:15;;;;;;;0.60;0.50;;;;;;;;;;4974694;28;20250;-74
2020/12/27 09:25:41;;;;;;;0.40;0.40;;;;;;;;;;4969234;28;20184;-74
2020/12/27 09:28:12;;;;;;;0.80;0.50;;;;;;;;;;4974269;28;20183;-74
2020/12/27 09:30:37;;;;;;;0.40;0.40;;;;;;;;;;4972335;28;20271;-74
2020/12/27 09:33:02;;;;;;;0.50;0.50;;;;;;;;;;4971567;28;20306;-74
2020/12/27 09:35:27;;;;;;;1.23;0.60;;;;;;;;;;4971856;28;20180;-75
2020/12/27 09:37:53;;;;;;;1.13;0.70;;;;;;;;;;4974276;28;20188;-74
2020/12/27 09:40:19;;;;;;;1.43;0.90;;;;;;;;;;4972881;28;20592;-74
2020/12/27 09:42:45;;;;;;;0.67;0.50;;;;;;;;;;4973146;28;20188;-74
2020/12/27 09:45:24;;;;;;;0.50;0.47;;;;;;;;;;4976177;28;20169;-75
2020/12/27 09:48:02;;;;;;;0.77;0.60;;;;;;;;;;4972390;28;20200;-75
2020/12/27 09:50:37;;;;;;;0.60;0.40;;;;;;;;;;4971383;28;20199;-74
2020/12/27 09:53:02;;;;;;;0.60;0.60;;;;;;;;;;4972376;28;20235;-75
2020/12/27 09:55:28;;;;;;;0.60;0.50;;;;;;;;;;4963503;28;20616;-74
2020/12/27 09:57:53;;;;;;;0.67;0.67;;;;;;;;;;4972181;28;20169;-75
2020/12/27 10:00:18;;;;;;;0.70;0.60;;;;;;;;;;4972071;28;20204;-75
2020/12/27 10:02:44;;;;;;;1.83;0.50;;;;;;;;;;4972213;28;20199;-75
2020/12/27 10:05:09;;;;;;;0.93;0.87;;;;;;;;;;4970883;28;20539;-75
2020/12/27 10:07:34;;;;;;;0.80;0.70;;;;;;;;;;4969876;28;20545;-75
2020/12/27 10:09:59;;;;;;;1.47;0.70;;;;;;;;;;4976357;28;20176;-76
2020/12/27 10:12:25;;;;;;;0.60;0.60;;;;;;;;;;4973185;28;20196;-76
2020/12/27 10:14:50;;;;;;;1.00;0.70;;;;;;;;;;4974595;28;20188;-76
2020/12/27 10:17:15;;;;;;;0.77;0.70;;;;;;;;;;4975526;28;20184;-76
2020/12/27 10:19:41;;;;;;;0.80;0.80;;;;;;;;;;4975970;28;20211;-76
2020/12/27 10:22:06;;;;;;;0.60;0.60;;;;;;;;;;4971720;28;20268;-76
2020/12/27 10:24:34;;;;;;;0.67;0.67;;;;;;;;;;4976972;28;20192;-76
2020/12/27 10:27:00;;;;;;;1.17;0.67;;;;;;;;;;4971329;28;20585;-75
2020/12/27 10:29:25;;;;;;;0.70;0.60;;;;;;;;;;4975338;28;20717;-76
2020/12/27 10:31:55;;;;;;;0.67;0.60;;;;;;;;;;4970698;28;20176;-76
2020/12/27 10:34:21;;;;;;;0.70;0.70;;;;;;;;;;4974978;28;20245;-74
2020/12/27 10:36:47;;;;;;;0.67;0.53;;;;;;;;;;4970358;28;20766;-74
2020/12/27 10:39:12;;;;;;;0.70;0.53;;;;;;;;;;4974887;28;20615;-76
2020/12/27 10:41:38;;;;;;;0.77;0.77;;;;;;;;;;4974197;28;20213;-77
2020/12/27 10:44:03;;;;;;;0.50;0.50;;;;;;;;;;4979096;28;20599;-77
2020/12/27 10:46:28;;;;;;;0.77;0.67;;;;;;;;;;4991601;28;20541;-76
2020/12/27 10:48:53;;;;;;;0.87;0.50;;;;;;;;;;4975388;28;20204;-75
2020/12/27 10:51:18;;;;;;;0.60;0.60;;;;;;;;;;4974051;28;20184;-76
2020/12/27 10:53:43;;;;;;;0.93;0.73;;;;;;;;;;4974408;28;20199;-75
2020/12/27 10:56:09;;;;;;;1.20;0.70;;;;;;;;;;4974944;28;20176;-76
2020/12/27 10:58:34;;;;;;;0.80;0.47;;;;;;;;;;4974116;28;20195;-75
2020/12/27 11:00:59;;;;;;;0.80;0.70;;;;;;;;;;4978397;28;20200;-77
2020/12/27 11:03:24;;;;;;;0.97;0.80;;;;;;;;;;4975587;28;20211;-75
2020/12/27 11:05:49;;;;;;;0.50;0.50;;;;;;;;;;4973305;28;20184;-77
2020/12/27 11:08:15;;;;;;;0.60;0.60;;;;;;;;;;4989998;28;20180;-75
2020/12/27 11:10:42;;;;;;;1.57;0.63;;;;;;;;;;4975497;28;20186;-76
2020/12/27 11:13:07;;;;;;;0.80;0.50;;;;;;;;;;4974787;28;20254;-75
2020/12/27 11:15:33;;;;;;;0.57;0.57;;;;;;;;;;4965254;28;20184;-76
2020/12/27 11:18:00;;;;;;;0.60;0.60;;;;;;;;;;4984290;28;20196;-75
2020/12/27 11:20:25;;;;;;;1.57;0.53;;;;;;;;;;4976773;28;20298;-75
2020/12/27 11:22:50;;;;;;;0.73;0.73;;;;;;;;;;4976577;28;20284;-75
2020/12/27 11:25:15;;;;;;;0.67;0.43;;;;;;;;;;4977103;28;20654;-76
2020/12/27 11:27:40;;;;;;;0.50;0.50;;;;;;;;;;4975061;28;20177;-76
2020/12/27 11:30:05;;;;;;;0.70;0.70;;;;;;;;;;4975451;28;20653;-74
2020/12/27 11:32:31;;;;;;;0.50;0.50;;;;;;;;;;4974207;28;20188;-74
2020/12/27 11:34:56;;;;;;;0.70;0.63;;;;;;;;;;4975739;28;20192;-74
2020/12/27 11:37:21;;;;;;;0.97;0.47;;;;;;;;;;4974110;28;20682;-75
2020/12/27 11:39:46;;;;;;;0.60;0.60;;;;;;;;;;4978971;28;20207;-74
2020/12/27 11:42:11;;;;;;;1.13;0.90;;;;;;;;;;4974318;28;20734;-74
2020/12/27 11:44:37;;;;;;;0.60;0.60;;;;;;;;;;4979224;28;20196;-74
2020/12/27 11:47:03;;;;;;;0.70;0.70;;;;;;;;;;4973796;28;20203;-75
2020/12/27 11:49:28;;;;;;;0.60;0.60;;;;;;;;;;4974505;28;20260;-75
2020/12/27 11:51:53;;;;;;;0.73;0.60;;;;;;;;;;4980135;28;20255;-75
2020/12/27 11:54:18;;;;;;;0.53;0.40;;;;;;;;;;4974573;28;20258;-75
2020/12/27 11:56:44;;;;;;;0.60;0.60;;;;;;;;;;4974101;28;20184;-74
2020/12/27 11:59:10;;;;;;;0.60;0.50;;;;;;;;;;4973918;28;20274;-74
2020/12/27 12:01:35;;;;;;;1.03;0.70;;;;;;;;;;4973207;28;20200;-75
2020/12/27 12:04:00;;;;;;;0.70;0.70;;;;;;;;;;4973005;28;20712;-75
2020/12/27 12:06:25;;;;;;;0.60;0.60;;;;;;;;;;4973745;28;20172;-75
2020/12/27 12:08:50;;;;;;;0.60;0.60;;;;;;;;;;4975860;28;20286;-75
2020/12/27 12:11:16;;;;;;;0.43;0.40;;;;;;;;;;4974138;28;20612;-75
2020/12/27 12:13:41;;;;;;;2.37;0.60;;;;;;;;;;4970940;28;20204;-76
2020/12/27 12:16:06;;;;;;;0.70;0.70;;;;;;;;;;4973616;28;20610;-76
2020/12/27 12:18:31;;;;;;;0.50;0.50;;;;;;;;;;4974179;28;20260;-75
2020/12/27 12:20:56;;;;;;;0.60;0.50;;;;;;;;;;4973965;28;20193;-75
2020/12/27 12:23:22;;;;;;;0.50;0.50;;;;;;;;;;4972732;28;20259;-75
2020/12/27 12:25:47;;;;;;;0.40;0.40;;;;;;;;;;4973695;28;20546;-75
2020/12/27 12:28:12;;;;;;;0.97;0.63;;;;;;;;;;4976841;28;20234;-75
2020/12/27 12:30:44;;;;;;;0.50;0.50;;;;;;;;;;4973961;28;20312;-75
2020/12/27 12:33:10;;;;;;;0.60;0.50;;;;;;;;;;4977052;28;20627;-74
2020/12/27 12:35:35;;;;;;;0.80;0.60;;;;;;;;;;4972175;28;20704;-75
2020/12/27 12:38:00;;;;;;;0.90;0.60;;;;;;;;;;4975832;28;20275;-75
2020/12/27 12:40:26;;;;;;;0.50;0.50;;;;;;;;;;4973777;28;20204;-75
2020/12/27 12:42:51;;;;;;;1.00;0.70;;;;;;;;;;4976354;28;20224;-74
2020/12/27 12:45:16;;;;;;;2.00;0.60;;;;;;;;;;4980008;28;20176;-75
2020/12/27 12:47:42;;;;;;;5.70;0.90;;;;;;;;;;4977380;28;20561;-75
2020/12/27 12:50:07;;;;;;;0.63;0.43;;;;;;;;;;4978233;28;20286;-75
2020/12/27 12:52:32;;;;;;;0.57;0.50;;;;;;;;;;4976547;28;20172;-76
2020/12/27 12:54:57;;;;;;;2.67;0.70;;;;;;;;;;4980921;28;20176;-76
2020/12/27 12:57:22;;;;;;;0.67;0.50;;;;;;;;;;4971573;28;20184;-75
2020/12/27 12:59:48;;;;;;;1.10;0.60;;;;;;;;;;4988233;28;20579;-76
2020/12/27 13:02:13;;;;;;;1.40;0.50;;;;;;;;;;4972645;28;20184;-75
2020/12/27 13:04:38;;;;;;;1.47;1.37;;;;;;;;;;4972908;28;20247;-74
2020/12/27 13:07:03;;;;;;;0.70;0.63;;;;;;;;;;4972849;28;20180;-75
2020/12/27 13:09:30;;;;;;;0.40;0.40;;;;;;;;;;4976326;28;20609;-77
2020/12/27 13:11:56;;;;;;;2.10;0.63;;;;;;;;;;4976491;28;20176;-76
2020/12/27 13:14:22;;;;;;;0.50;0.50;;;;;;;;;;4973172;28;20196;-75
2020/12/27 13:16:48;;;;;;;5.57;0.70;;;;;;;;;;4986203;28;20172;-75
2020/12/27 13:19:13;;;;;;;0.80;0.70;;;;;;;;;;4973958;28;20194;-75
2020/12/27 13:21:38;;;;;;;0.80;0.80;;;;;;;;;;4987910;28;20229;-75
2020/12/27 13:24:03;;;;;;;1.67;0.73;;;;;;;;;;4976205;28;20242;-77
2020/12/27 13:26:28;;;;;;;0.77;0.77;;;;;;;;;;4973016;28;20670;-76
2020/12/27 13:28:53;;;;;;;0.90;0.80;;;;;;;;;;4974308;28;20188;-76
2020/12/27 13:31:19;;;;;;;0.90;0.87;;;;;;;;;;4972953;28;20243;-75
2020/12/27 13:33:44;;;;;;;2.00;0.80;;;;;;;;;;4970960;28;20208;-76
2020/12/27 13:36:09;;;;;;;0.80;0.80;;;;;;;;;;4973128;28;20180;-76
2020/12/27 13:38:34;;;;;;;1.30;1.20;;;;;;;;;;4975235;28;20328;-76
2020/12/27 13:40:59;;;;;;;0.93;0.80;;;;;;;;;;4976580;28;20584;-75
2020/12/27 13:43:25;;;;;;;0.88;0.80;;;;;;;;;;4972071;28;20574;-76
2020/12/27 13:45:50;;;;;;;0.90;0.60;;;;;;;;;;4976838;28;20183;-76
2020/12/27 13:48:15;;;;;;;1.60;0.97;;;;;;;;;;4973651;28;20235;-76
2020/12/27 13:50:40;;;;;;;1.27;0.80;;;;;;;;;;4975808;28;20653;-76
2020/12/27 13:53:05;;;;;;;1.20;0.87;;;;;;;;;;4970591;28;20196;-75
2020/12/27 13:55:30;;;;;;;1.60;1.17;;;;;;;;;;4979516;28;20180;-79
2020/12/27 13:57:55;;;;;;;0.87;0.70;;;;;;;;;;4973368;28;20180;-75
2020/12/27 14:00:21;;;;;;;0.93;0.77;;;;;;;;;;4972868;28;20208;-75
2020/12/27 14:02:46;;;;;;;1.83;0.70;;;;;;;;;;4972658;28;20212;-76
2020/12/27 14:05:11;;;;;;;4.77;1.00;;;;;;;;;;4972405;28;20176;-76
2020/12/27 14:07:36;;;;;;;1.47;0.80;;;;;;;;;;4973957;28;20578;-78
2020/12/27 14:10:02;;;;;;;0.67;0.67;;;;;;;;;;4972603;28;20189;-76
2020/12/27 14:12:27;;;;;;;1.17;0.80;;;;;;;;;;4972543;28;20187;-76
2020/12/27 14:14:52;;;;;;;2.93;1.10;;;;;;;;;;4974348;28;20177;-77
2020/12/27 14:17:18;;;;;;;1.57;0.77;;;;;;;;;;4976235;28;20184;-78
2020/12/27 14:19:43;;;;;;;1.17;0.83;;;;;;;;;;4976270;28;20583;-76
2020/12/27 14:22:08;;;;;;;1.37;0.70;;;;;;;;;;4976652;28;20211;-75
2020/12/27 14:24:33;;;;;;;1.07;0.97;;;;;;;;;;4979886;28;20202;-75
2020/12/27 14:26:58;;;;;;;2.20;1.10;;;;;;;;;;4979091;28;20535;-75
2020/12/27 14:29:23;;;;;;;1.30;0.83;;;;;;;;;;4975326;28;20189;-75
2020/12/27 14:31:49;;;;;;;0.70;0.70;;;;;;;;;;4976217;28;20194;-75
2020/12/27 14:34:14;;;;;;;1.00;0.80;;;;;;;;;;4975953;28;20697;-75